createdAt,value
2018-06-05T00:00:51.027Z,94.12
2018-06-05T00:01:51.015Z,94.31
2018-06-05T00:02:51.031Z,94.31
2018-06-05T00:03:51.022Z,94.31
2018-06-05T00:04:51.017Z,94.12
2018-06-05T00:05:51.026Z,94.31
2018-06-05T00:06:51.018Z,94.31
2018-06-05T00:07:51.000Z,94.21
2018-06-05T00:08:50.999Z,94.21
2018-06-05T00:09:50.984Z,94.12
2018-06-05T00:10:51.002Z,94.12
2018-06-05T00:11:50.976Z,94.12
2018-06-05T00:12:51.001Z,94.12
2018-06-05T00:13:51.023Z,93.92
2018-06-05T00:14:50.988Z,94.17
2018-06-05T00:15:50.968Z,94.26
2018-06-05T00:16:50.975Z,94.07
2018-06-05T00:17:50.953Z,94.17
2018-06-05T00:18:50.967Z,94.17
2018-06-05T00:19:50.971Z,94.26
2018-06-05T00:20:50.946Z,94.64
2018-06-05T00:21:50.951Z,93.97
2018-06-05T00:22:50.935Z,94.07
2018-06-05T00:23:50.961Z,93.97
2018-06-05T00:24:50.686Z,94.17
2018-06-05T00:25:50.939Z,93.88
2018-06-05T00:26:50.962Z,93.88
2018-06-05T00:27:50.937Z,93.88
2018-06-05T00:28:50.664Z,93.88
2018-06-05T00:29:50.910Z,94.07
2018-06-05T00:30:50.923Z,93.97
2018-06-05T00:31:50.899Z,93.97
2018-06-05T00:32:50.905Z,94.07
2018-06-05T00:33:50.890Z,93.88
2018-06-05T00:34:50.905Z,94.07
2018-06-05T00:35:50.902Z,94.07
2018-06-05T00:36:50.900Z,93.97
2018-06-05T00:37:50.873Z,93.97
2018-06-05T00:38:50.871Z,94.07
2018-06-05T00:39:50.889Z,93.88
2018-06-05T00:40:50.631Z,93.97
2018-06-05T00:41:50.882Z,93.97
2018-06-05T00:42:50.857Z,93.97
2018-06-05T00:43:50.872Z,93.88
2018-06-05T00:44:50.846Z,93.97
2018-06-05T00:45:50.863Z,93.97
2018-06-05T00:46:50.866Z,93.97
2018-06-05T00:47:50.852Z,93.88
2018-06-05T00:48:50.843Z,93.97
2018-06-05T00:49:50.591Z,94.26
2018-06-05T00:50:50.827Z,93.88
2018-06-05T00:51:50.566Z,93.88
2018-06-05T00:52:50.829Z,94.07
2018-06-05T00:53:50.833Z,93.97
2018-06-05T00:54:50.567Z,94.26
2018-06-05T00:55:50.822Z,94.07
2018-06-05T00:56:50.808Z,93.97
2018-06-05T00:57:50.814Z,94.07
2018-06-05T00:58:50.794Z,94.07
2018-06-05T00:59:50.804Z,93.97
2018-06-05T01:00:50.794Z,93.97
2018-06-05T01:01:50.542Z,93.88
2018-06-05T01:02:50.773Z,94.07
2018-06-05T01:03:50.796Z,94.26
2018-06-05T01:04:50.781Z,93.88
2018-06-05T01:05:50.526Z,93.88
2018-06-05T01:06:50.760Z,93.88
2018-06-05T01:07:50.524Z,94.26
2018-06-05T01:08:50.759Z,93.88
2018-06-05T01:09:50.748Z,93.88
2018-06-05T01:10:50.745Z,94.07
2018-06-05T01:11:50.766Z,94.07
2018-06-05T01:12:50.489Z,93.88
2018-06-05T01:13:50.750Z,94.17
2018-06-05T01:14:50.728Z,94.17
2018-06-05T01:15:50.743Z,93.97
2018-06-05T01:16:50.719Z,94.02
2018-06-05T01:17:50.741Z,94.4
2018-06-05T01:18:50.710Z,94.45
2018-06-05T01:19:50.728Z,94.4
2018-06-05T01:20:50.707Z,94.4
2018-06-05T01:21:50.699Z,94.4
2018-06-05T01:22:50.716Z,94.31
2018-06-05T01:23:50.712Z,94.31
2018-06-05T01:24:50.693Z,94.21
2018-06-05T01:25:50.683Z,94.21
2018-06-05T01:26:50.427Z,94.21
2018-06-05T01:27:50.696Z,94.21
2018-06-05T01:28:50.674Z,94.12
2018-06-05T01:29:50.690Z,94.21
2018-06-05T01:30:50.661Z,93.93
2018-06-05T01:31:50.423Z,93.93
2018-06-05T01:32:50.656Z,94.02
2018-06-05T01:33:50.674Z,93.93
2018-06-05T01:34:50.648Z,93.83
2018-06-05T01:35:50.663Z,93.93
2018-06-05T01:36:50.651Z,94.12
2018-06-05T01:37:50.657Z,94.02
2018-06-05T01:38:50.627Z,93.83
2018-06-05T01:39:50.625Z,94.21
2018-06-05T01:40:50.632Z,93.93
2018-06-05T01:41:50.636Z,93.83
2018-06-05T01:42:50.630Z,93.63
2018-06-05T01:43:50.608Z,93.83
2018-06-05T01:44:50.618Z,94.02
2018-06-05T01:45:50.617Z,93.73
2018-06-05T01:46:50.592Z,93.93
2018-06-05T01:47:50.609Z,93.83
2018-06-05T01:48:50.624Z,93.54
2018-06-05T01:49:50.600Z,93.93
2018-06-05T01:50:50.578Z,94.02
2018-06-05T01:51:50.592Z,94.12
2018-06-05T01:52:50.585Z,93.83
2018-06-05T01:53:50.583Z,93.73
2018-06-05T01:54:50.561Z,94.12
2018-06-05T01:55:50.553Z,94.21
2018-06-05T01:56:50.314Z,93.93
2018-06-05T01:57:50.568Z,94.02
2018-06-05T01:58:50.563Z,93.83
2018-06-05T01:59:50.538Z,93.73
2018-06-05T02:00:50.548Z,93.93
2018-06-05T02:01:50.527Z,93.63
2018-06-05T02:02:50.548Z,93.4
2018-06-05T02:03:50.520Z,93.4
2018-06-05T02:04:50.533Z,93.49
2018-06-05T02:05:50.511Z,93.49
2018-06-05T02:06:50.269Z,93.73
2018-06-05T02:07:50.253Z,93.78
2018-06-05T02:08:50.505Z,93.59
2018-06-05T02:09:50.493Z,93.3
2018-06-05T02:10:50.510Z,93.11
2018-06-05T02:11:50.490Z,93.4
2018-06-05T02:12:50.496Z,93.4
2018-06-05T02:13:50.497Z,93.06
2018-06-05T02:14:50.496Z,93.21
2018-06-05T02:15:50.470Z,93.88
2018-06-05T02:16:50.485Z,93.11
2018-06-05T02:17:50.230Z,93.11
2018-06-05T02:18:50.476Z,93.88
2018-06-05T02:19:50.452Z,93.49
2018-06-05T02:20:50.469Z,93.59
2018-06-05T02:21:50.193Z,93.78
2018-06-05T02:22:50.461Z,93.68
2018-06-05T02:23:50.438Z,93.59
2018-06-05T02:24:50.189Z,93.54
2018-06-05T02:25:50.431Z,93.54
2018-06-05T02:26:50.449Z,93.35
2018-06-05T02:27:50.182Z,93.73
2018-06-05T02:28:50.169Z,93.54
2018-06-05T02:29:50.413Z,93.54
2018-06-05T02:30:50.407Z,93.73
2018-06-05T02:31:50.433Z,93.73
2018-06-05T02:32:50.404Z,93.93
2018-06-05T02:33:50.419Z,94.12
2018-06-05T02:34:50.405Z,93.93
2018-06-05T02:35:50.425Z,94.02
2018-06-05T02:36:50.410Z,94.02
2018-06-05T02:37:50.377Z,94.12
2018-06-05T02:38:50.395Z,93.83
2018-06-05T02:39:50.385Z,94.12
2018-06-05T02:40:50.381Z,94.31
2018-06-05T02:41:50.365Z,94.21
2018-06-05T02:42:50.380Z,94.4
2018-06-05T02:43:50.378Z,94.12
2018-06-05T02:44:50.360Z,93.93
2018-06-05T02:45:50.355Z,93.83
2018-06-05T02:46:50.338Z,94.02
2018-06-05T02:47:50.356Z,94.12
2018-06-05T02:48:50.345Z,93.73
2018-06-05T02:49:50.336Z,93.63
2018-06-05T02:50:50.359Z,93.63
2018-06-05T02:51:50.333Z,93.83
2018-06-05T02:52:50.335Z,93.73
2018-06-05T02:53:50.314Z,93.83
2018-06-05T02:54:50.070Z,94.12
2018-06-05T02:55:50.300Z,93.63
2018-06-05T02:56:50.302Z,93.63
2018-06-05T02:57:50.292Z,93.73
2018-06-05T02:58:50.313Z,94.12
2018-06-05T02:59:50.303Z,94.02
2018-06-05T03:00:50.286Z,93.83
2018-06-05T03:01:50.283Z,94.02
2018-06-05T03:02:50.044Z,93.73
2018-06-05T03:03:50.272Z,94.12
2018-06-05T03:04:50.285Z,94.21
2018-06-05T03:05:50.278Z,94.21
2018-06-05T03:06:50.283Z,94.12
2018-06-05T03:07:50.259Z,94.12
2018-06-05T03:08:50.012Z,94.21
2018-06-05T03:09:50.263Z,93.93
2018-06-05T03:10:50.001Z,94.12
2018-06-05T03:11:50.234Z,94.02
2018-06-05T03:12:50.243Z,93.93
2018-06-05T03:13:50.236Z,94.02
2018-06-05T03:14:49.986Z,93.88
2018-06-05T03:15:50.237Z,94.12
2018-06-05T03:16:50.220Z,93.93
2018-06-05T03:17:50.207Z,93.93
2018-06-05T03:18:50.211Z,93.93
2018-06-05T03:19:50.223Z,93.59
2018-06-05T03:20:50.200Z,93.97
2018-06-05T03:21:50.212Z,93.88
2018-06-05T03:22:50.189Z,93.78
2018-06-05T03:23:50.292Z,93.78
2018-06-05T03:24:50.178Z,93.78
2018-06-05T03:25:50.195Z,93.68
2018-06-05T03:26:50.202Z,93.68
2018-06-05T03:27:50.189Z,93.49
2018-06-05T03:28:50.172Z,93.88
2018-06-05T03:29:50.163Z,93.21
2018-06-05T03:30:50.179Z,93.21
2018-06-05T03:31:50.182Z,93.4
2018-06-05T03:32:50.154Z,93.3
2018-06-05T03:33:49.891Z,93.4
2018-06-05T03:34:50.138Z,93.21
2018-06-05T03:35:50.153Z,93.21
2018-06-05T03:36:50.136Z,93.68
2018-06-05T03:37:50.145Z,93.63
2018-06-05T03:38:50.122Z,92.96
2018-06-05T03:39:50.141Z,93.44
2018-06-05T03:40:50.213Z,92.86
2018-06-05T03:41:50.135Z,92.96
2018-06-05T03:42:50.120Z,93.35
2018-06-05T03:43:49.867Z,93.15
2018-06-05T03:44:50.115Z,93.44
2018-06-05T03:45:50.123Z,93.44
2018-06-05T03:46:50.097Z,93.2
2018-06-05T03:47:50.089Z,93.3
2018-06-05T03:48:50.098Z,93.3
2018-06-05T03:49:49.845Z,93.2
2018-06-05T03:50:50.099Z,93.01
2018-06-05T03:51:50.074Z,92.82
2018-06-05T03:52:50.084Z,92.82
2018-06-05T03:53:50.088Z,93.01
2018-06-05T03:54:50.063Z,93.1
2018-06-05T03:55:49.823Z,92.53
2018-06-05T03:56:50.059Z,92.91
2018-06-05T03:57:50.079Z,92.24
2018-06-05T03:58:49.797Z,92.91
2018-06-05T03:59:50.066Z,93.01
2018-06-05T04:00:50.057Z,92.72
2018-06-05T04:01:49.803Z,92.48
2018-06-05T04:02:49.784Z,92.86
2018-06-05T04:03:50.034Z,92.19
2018-06-05T04:04:50.044Z,93.05
2018-06-05T04:05:50.052Z,93.05
2018-06-05T04:06:50.054Z,92.38
2018-06-05T04:07:50.026Z,92.43
2018-06-05T04:08:50.031Z,92.62
2018-06-05T04:09:50.013Z,91.95
2018-06-05T04:10:50.030Z,92.14
2018-06-05T04:11:50.007Z,91.95
2018-06-05T04:12:50.023Z,92.14
2018-06-05T04:13:50.000Z,91.95
2018-06-05T04:14:50.018Z,91.8
2018-06-05T04:15:49.995Z,91.9
2018-06-05T04:16:49.998Z,92.29
2018-06-05T04:17:49.989Z,91.32
2018-06-05T04:18:50.015Z,91.52
2018-06-05T04:19:49.990Z,90.79
2018-06-05T04:20:50.007Z,90.89
2018-06-05T04:21:50.000Z,90.59
2018-06-05T04:22:50.000Z,90.69
2018-06-05T04:23:49.974Z,90.64
2018-06-05T04:24:50.030Z,90.35
2018-06-05T04:25:49.969Z,90.16
2018-06-05T04:26:49.993Z,89.78
2018-06-05T04:27:49.966Z,89.2
2018-06-05T04:28:49.981Z,89.49
2018-06-05T04:29:49.966Z,89.58
2018-06-05T04:30:49.976Z,89.87
2018-06-05T04:31:49.958Z,89.58
2018-06-05T04:32:49.707Z,89.49
2018-06-05T04:33:49.716Z,89.2
2018-06-05T04:34:49.982Z,89.2
2018-06-05T04:35:49.966Z,89.2
2018-06-05T04:36:49.959Z,89.15
2018-06-05T04:37:49.691Z,89.63
2018-06-05T04:38:49.940Z,88.95
2018-06-05T04:39:49.958Z,88.67
2018-06-05T04:40:49.949Z,88.28
2018-06-05T04:41:49.954Z,88.38
2018-06-05T04:42:49.693Z,88.28
2018-06-05T04:43:49.956Z,87.41
2018-06-05T04:44:49.937Z,88.38
2018-06-05T04:45:49.927Z,88.28
2018-06-05T04:46:49.689Z,88.18
2018-06-05T04:47:50.045Z,88.09
2018-06-05T04:48:49.927Z,88.32
2018-06-05T04:49:49.921Z,87.94
2018-06-05T04:50:49.951Z,87.74
2018-06-05T04:51:49.935Z,87.74
2018-06-05T04:52:49.917Z,88.13
2018-06-05T04:53:49.661Z,87.94
2018-06-05T04:54:49.909Z,87.65
2018-06-05T04:55:49.929Z,87.94
2018-06-05T04:56:49.910Z,87.94
2018-06-05T04:57:49.923Z,87.65
2018-06-05T04:58:49.905Z,87.79
2018-06-05T04:59:49.924Z,87.12
2018-06-05T05:00:49.903Z,87.7
2018-06-05T05:01:49.917Z,87.6
2018-06-05T05:02:49.644Z,87.12
2018-06-05T05:03:49.913Z,86.78
2018-06-05T05:04:49.906Z,87.17
2018-06-05T05:05:49.918Z,87.17
2018-06-05T05:06:49.905Z,86.98
2018-06-05T05:07:49.903Z,86.59
2018-06-05T05:08:49.914Z,86.49
2018-06-05T05:09:49.910Z,86.98
2018-06-05T05:10:49.881Z,87.17
2018-06-05T05:11:49.901Z,86.55
2018-06-05T05:12:49.882Z,87.9
2018-06-05T05:13:49.902Z,87.7
2018-06-05T05:14:49.877Z,87.51
2018-06-05T05:15:49.892Z,87.65
2018-06-05T05:16:49.874Z,87.55
2018-06-05T05:17:49.896Z,87.65
2018-06-05T05:18:49.868Z,86.98
2018-06-05T05:19:49.887Z,87.26
2018-06-05T05:20:49.882Z,86.88
2018-06-05T05:21:49.883Z,86.49
2018-06-05T05:22:49.610Z,86.11
2018-06-05T05:23:49.861Z,86.3
2018-06-05T05:24:49.876Z,86.01
2018-06-05T05:25:49.877Z,85.82
2018-06-05T05:26:49.619Z,86.11
2018-06-05T05:27:49.852Z,85.82
2018-06-05T05:28:49.909Z,86.69
2018-06-05T05:29:49.851Z,86.93
2018-06-05T05:30:49.947Z,86.65
2018-06-05T05:31:49.846Z,86.55
2018-06-05T05:32:49.866Z,86.65
2018-06-05T05:33:49.847Z,86.65
2018-06-05T05:34:49.861Z,86.74
2018-06-05T05:35:49.843Z,86.74
2018-06-05T05:36:49.851Z,86.55
2018-06-05T05:37:49.860Z,87.12
2018-06-05T05:38:49.837Z,87.22
2018-06-05T05:39:49.834Z,86.65
2018-06-05T05:40:49.590Z,86.45
2018-06-05T05:41:49.853Z,86.55
2018-06-05T05:42:49.867Z,87.12
2018-06-05T05:43:49.832Z,86.65
2018-06-05T05:44:49.842Z,86.69
2018-06-05T05:45:49.834Z,85.78
2018-06-05T05:46:49.844Z,85.78
2018-06-05T05:47:49.816Z,86.07
2018-06-05T05:48:49.834Z,86.26
2018-06-05T05:49:49.811Z,86.45
2018-06-05T05:50:49.831Z,86.65
2018-06-05T05:51:49.810Z,86.45
2018-06-05T05:52:49.569Z,86.55
2018-06-05T05:53:49.819Z,86.55
2018-06-05T05:54:49.909Z,86.35
2018-06-05T05:55:49.825Z,86.55
2018-06-05T05:56:49.812Z,86.55
2018-06-05T05:57:49.799Z,86.55
2018-06-05T05:58:49.798Z,86.55
2018-06-05T05:59:49.815Z,86.59
2018-06-05T06:00:49.798Z,86.78
2018-06-05T06:01:49.809Z,85.82
2018-06-05T06:02:49.833Z,85.82
2018-06-05T06:03:49.862Z,86.11
2018-06-05T06:04:49.804Z,85.91
2018-06-05T06:05:49.786Z,85.72
2018-06-05T06:06:49.800Z,85.43
2018-06-05T06:07:49.782Z,85.72
2018-06-05T06:08:49.786Z,85.14
2018-06-05T06:09:49.773Z,85.14
2018-06-05T06:10:49.824Z,85.43
2018-06-05T06:11:49.534Z,84.95
2018-06-05T06:12:49.777Z,84.47
2018-06-05T06:13:49.784Z,84.95
2018-06-05T06:14:49.782Z,84.66
2018-06-05T06:15:49.768Z,84.28
2018-06-05T06:16:49.778Z,84.76
2018-06-05T06:17:49.763Z,84.09
2018-06-05T06:18:49.780Z,83.94
2018-06-05T06:19:49.757Z,83.99
2018-06-05T06:20:49.773Z,84.61
2018-06-05T06:21:49.752Z,84.61
2018-06-05T06:22:49.769Z,84.52
2018-06-05T06:23:49.756Z,84.61
2018-06-05T06:24:50.006Z,83.94
2018-06-05T06:25:49.746Z,83.84
2018-06-05T06:26:49.769Z,84.03
2018-06-05T06:27:49.763Z,84.03
2018-06-05T06:28:49.762Z,83.74
2018-06-05T06:29:49.759Z,83.5
2018-06-05T06:30:49.757Z,83.5
2018-06-05T06:31:49.736Z,83.88
2018-06-05T06:32:49.759Z,83.5
2018-06-05T06:33:49.734Z,83.3
2018-06-05T06:34:49.748Z,83.11
2018-06-05T06:35:49.763Z,82.34
2018-06-05T06:36:49.760Z,82.43
2018-06-05T06:37:49.726Z,82.72
2018-06-05T06:38:49.747Z,82.72
2018-06-05T06:39:49.732Z,82.72
2018-06-05T06:40:49.734Z,82.76
2018-06-05T06:41:49.737Z,82.28
2018-06-05T06:42:49.742Z,81.99
2018-06-05T06:43:49.741Z,81.99
2018-06-05T06:44:49.729Z,81.9
2018-06-05T06:45:49.720Z,81.8
2018-06-05T06:46:49.733Z,82.14
2018-06-05T06:47:49.738Z,81.66
2018-06-05T06:48:49.866Z,81.76
2018-06-05T06:49:49.732Z,81.99
2018-06-05T06:50:49.474Z,81.66
2018-06-05T06:51:49.729Z,81.47
2018-06-05T06:52:49.714Z,81.57
2018-06-05T06:53:49.709Z,81.85
2018-06-05T06:54:49.857Z,81.66
2018-06-05T06:55:49.707Z,81.27
2018-06-05T06:56:49.719Z,81.66
2018-06-05T06:57:49.704Z,80.93
2018-06-05T06:58:49.725Z,81.12
2018-06-05T06:59:49.721Z,81.09
2018-06-05T07:00:49.707Z,81.27
2018-06-05T07:01:49.700Z,81.09
2018-06-05T07:02:49.700Z,81.22
2018-06-05T07:03:49.716Z,81.09
2018-06-05T07:04:49.701Z,81.22
2018-06-05T07:05:49.715Z,80.79
2018-06-05T07:06:49.449Z,81.47
2018-06-05T07:07:49.712Z,81.32
2018-06-05T07:08:49.702Z,80.93
2018-06-05T07:09:49.735Z,81.22
2018-06-05T07:10:49.692Z,81.02
2018-06-05T07:11:49.712Z,80.74
2018-06-05T07:12:49.705Z,81.02
2018-06-05T07:13:49.451Z,80.54
2018-06-05T07:14:49.435Z,80.54
2018-06-05T07:15:49.686Z,80.45
2018-06-05T07:16:49.699Z,80.54
2018-06-05T07:17:49.719Z,80.35
2018-06-05T07:18:49.683Z,80.16
2018-06-05T07:19:49.727Z,80.74
2018-06-05T07:20:49.687Z,80.74
2018-06-05T07:21:49.702Z,80.45
2018-06-05T07:22:49.693Z,80.3
2018-06-05T07:23:49.708Z,80.3
2018-06-05T07:24:49.456Z,80.2
2018-06-05T07:25:49.465Z,80
2018-06-05T07:26:49.929Z,79.52
2018-06-05T07:27:49.707Z,79.62
2018-06-05T07:28:49.700Z,79.72
2018-06-05T07:29:49.723Z,79.72
2018-06-05T07:30:49.684Z,79.52
2018-06-05T07:31:49.676Z,79.62
2018-06-05T07:32:49.704Z,78.75
2018-06-05T07:33:49.693Z,78.56
2018-06-05T07:34:49.693Z,79.62
2018-06-05T07:35:49.775Z,79.33
2018-06-05T07:36:49.689Z,79.24
2018-06-05T07:37:49.669Z,79.62
2018-06-05T07:38:49.689Z,79.62
2018-06-05T07:39:49.667Z,79.52
2018-06-05T07:40:49.691Z,80.1
2018-06-05T07:41:49.669Z,79.68
2018-06-05T07:42:49.686Z,79.52
2018-06-05T07:43:49.664Z,79.81
2018-06-05T07:44:49.697Z,78.94
2018-06-05T07:45:49.425Z,78.66
2018-06-05T07:46:49.690Z,78.27
2018-06-05T07:47:49.664Z,78.66
2018-06-05T07:48:49.675Z,78.66
2018-06-05T07:49:49.700Z,78.56
2018-06-05T07:50:49.712Z,78.31
2018-06-05T07:51:49.667Z,78.21
2018-06-05T07:52:49.675Z,78.21
2018-06-05T07:53:49.691Z,77.63
2018-06-05T07:54:49.689Z,77.83
2018-06-05T07:55:49.729Z,78.11
2018-06-05T07:56:49.700Z,77.44
2018-06-05T07:57:49.681Z,76.76
2018-06-05T07:58:49.673Z,77.44
2018-06-05T07:59:49.684Z,77.34
2018-06-05T08:00:49.671Z,77.25
2018-06-05T08:01:49.675Z,77.34
2018-06-05T08:02:49.653Z,77.63
2018-06-05T08:03:49.653Z,77.44
2018-06-05T08:04:49.681Z,77.44
2018-06-05T08:05:49.680Z,77.44
2018-06-05T08:06:49.680Z,76.86
2018-06-05T08:07:49.408Z,76.37
2018-06-05T08:08:49.682Z,76.32
2018-06-05T08:09:49.673Z,76.12
2018-06-05T08:10:49.666Z,76.51
2018-06-05T08:11:49.743Z,75.74
2018-06-05T08:12:49.660Z,75.16
2018-06-05T08:13:49.691Z,75.26
2018-06-05T08:14:49.670Z,75.29
2018-06-05T08:15:49.684Z,74.9
2018-06-05T08:16:49.674Z,74.04
2018-06-05T08:17:49.691Z,73.65
2018-06-05T08:18:49.728Z,73.55
2018-06-05T08:19:49.667Z,73.49
2018-06-05T08:20:49.713Z,72.81
2018-06-05T08:21:49.716Z,72.33
2018-06-05T08:22:49.688Z,72.17
2018-06-05T08:23:49.658Z,71.59
2018-06-05T08:24:50.188Z,70.76
2018-06-05T08:25:49.669Z,69.5
2018-06-05T08:26:49.679Z,69.24
2018-06-05T08:27:49.666Z,68.27
2018-06-05T08:28:49.685Z,67.88
2018-06-05T08:29:49.414Z,67.05
2018-06-05T08:30:49.693Z,64.95
2018-06-05T08:31:49.420Z,64.47
2018-06-05T08:32:49.684Z,64.85
2018-06-05T08:33:49.673Z,64.27
2018-06-05T08:34:49.695Z,63.78
2018-06-05T08:35:49.692Z,63.62
2018-06-05T08:36:49.705Z,63.43
2018-06-05T08:37:49.929Z,63.43
2018-06-05T08:38:49.738Z,62.75
2018-06-05T08:39:49.434Z,62.59
2018-06-05T08:40:49.705Z,61.91
2018-06-05T08:41:49.699Z,61.42
2018-06-05T08:42:49.463Z,60.77
2018-06-05T08:43:49.711Z,60.28
2018-06-05T08:44:49.730Z,60.19
2018-06-05T08:45:49.710Z,60.12
2018-06-05T08:46:49.747Z,59.92
2018-06-05T08:47:49.732Z,59.18
2018-06-05T08:48:49.726Z,58.59
2018-06-05T08:49:49.718Z,58.31
2018-06-05T08:50:49.755Z,58.04
2018-06-05T08:51:49.752Z,57.07
2018-06-05T08:52:49.484Z,56.87
2018-06-05T08:53:49.486Z,56.2
2018-06-05T08:54:49.747Z,56.29
2018-06-05T08:55:49.766Z,55.8
2018-06-05T08:56:49.754Z,55.41
2018-06-05T08:57:49.776Z,54.54
2018-06-05T08:58:49.763Z,55.03
2018-06-05T08:59:49.576Z,55.32
2018-06-05T09:00:49.794Z,55.22
2018-06-05T09:01:49.774Z,55.39
2018-06-05T09:02:49.798Z,55.39
2018-06-05T09:03:49.530Z,55
2018-06-05T09:04:49.797Z,55.29
2018-06-05T09:05:49.539Z,55.68
2018-06-05T09:06:49.817Z,56.56
2018-06-05T09:07:49.821Z,55.68
2018-06-05T09:08:49.811Z,55.78
2018-06-05T09:09:49.811Z,54.93
2018-06-05T09:10:49.619Z,55.03
2018-06-05T09:11:49.846Z,54.74
2018-06-05T09:12:49.618Z,54.25
2018-06-05T09:13:49.850Z,54.64
2018-06-05T09:14:49.838Z,55.13
2018-06-05T09:15:49.858Z,55.13
2018-06-05T09:16:49.589Z,54.05
2018-06-05T09:17:49.886Z,54.05
2018-06-05T09:18:49.598Z,54.15
2018-06-05T09:19:49.874Z,53.86
2018-06-05T09:20:49.874Z,54.15
2018-06-05T09:21:49.883Z,54.25
2018-06-05T09:22:49.634Z,53.47
2018-06-05T09:23:49.893Z,54.61
2018-06-05T09:24:49.634Z,55
2018-06-05T09:25:49.902Z,54.61
2018-06-05T09:26:49.639Z,54.44
2018-06-05T09:27:49.916Z,54.05
2018-06-05T09:28:49.952Z,53.86
2018-06-05T09:29:49.935Z,53.18
2018-06-05T09:30:49.906Z,53.01
2018-06-05T09:31:49.934Z,53.38
2018-06-05T09:32:49.919Z,53.77
2018-06-05T09:33:49.995Z,53.77
2018-06-05T09:34:49.925Z,53.89
2018-06-05T09:35:49.966Z,53.01
2018-06-05T09:36:49.978Z,52.82
2018-06-05T09:37:49.961Z,52.65
2018-06-05T09:38:49.950Z,51.48
2018-06-05T09:39:49.972Z,51.87
2018-06-05T09:40:49.969Z,52.62
2018-06-05T09:41:49.975Z,53.4
2018-06-05T09:42:49.974Z,53.01
2018-06-05T09:43:49.995Z,53.01
2018-06-05T09:44:49.988Z,53.01
2018-06-05T09:45:50.012Z,52.92
2018-06-05T09:46:49.757Z,51.58
2018-06-05T09:47:50.018Z,51.67
2018-06-05T09:48:50.025Z,52.04
2018-06-05T09:49:50.038Z,52.62
2018-06-05T09:50:50.014Z,52.82
2018-06-05T09:51:50.039Z,52.72
2018-06-05T09:52:49.790Z,52.62
2018-06-05T09:53:50.030Z,52.26
2018-06-05T09:54:50.058Z,52.26
2018-06-05T09:55:50.064Z,51.51
2018-06-05T09:56:49.804Z,51.9
2018-06-05T09:57:49.833Z,52.09
2018-06-05T09:58:49.806Z,52.09
2018-06-05T09:59:50.079Z,52.06
2018-06-05T10:00:50.077Z,50.73
2018-06-05T10:01:50.093Z,50.82
2018-06-05T10:02:50.099Z,50.92
2018-06-05T10:03:50.209Z,50.92
2018-06-05T10:04:50.097Z,51.41
2018-06-05T10:05:50.125Z,51.21
2018-06-05T10:06:50.122Z,50.85
2018-06-05T10:07:49.875Z,50.65
2018-06-05T10:08:50.134Z,49.78
2018-06-05T10:09:50.144Z,49.85
2018-06-05T10:10:50.140Z,50.82
2018-06-05T10:11:50.133Z,51.39
2018-06-05T10:12:50.167Z,52.04
2018-06-05T10:13:50.169Z,52.82
2018-06-05T10:14:50.172Z,52.98
2018-06-05T10:15:50.163Z,52.82
2018-06-05T10:16:50.200Z,51.65
2018-06-05T10:17:49.966Z,51.84
2018-06-05T10:18:50.177Z,52.06
2018-06-05T10:19:50.243Z,51.97
2018-06-05T10:20:50.249Z,51.87
2018-06-05T10:21:50.214Z,52.33
2018-06-05T10:22:50.201Z,52.33
2018-06-05T10:23:49.978Z,52.72
2018-06-05T10:24:50.219Z,52.62
2018-06-05T10:25:50.231Z,52.82
2018-06-05T10:26:50.257Z,53.01
2018-06-05T10:27:49.988Z,52.75
2018-06-05T10:28:49.985Z,52.84
2018-06-05T10:29:50.251Z,51.97
2018-06-05T10:30:50.261Z,51.31
2018-06-05T10:31:50.245Z,51.61
2018-06-05T10:32:50.266Z,51.8
2018-06-05T10:33:50.255Z,52.09
2018-06-05T10:34:50.344Z,51.8
2018-06-05T10:35:50.267Z,51.12
2018-06-05T10:36:50.301Z,50.95
2018-06-05T10:37:50.279Z,51.14
2018-06-05T10:38:50.308Z,50.85
2018-06-05T10:39:50.290Z,50.85
2018-06-05T10:40:50.301Z,50.46
2018-06-05T10:41:50.317Z,50.65
2018-06-05T10:42:50.328Z,50.95
2018-06-05T10:43:50.366Z,50.75
2018-06-05T10:44:50.350Z,49.8
2018-06-05T10:45:50.353Z,50.09
2018-06-05T10:46:50.543Z,50.46
2018-06-05T10:47:50.336Z,50.92
2018-06-05T10:48:50.366Z,51.51
2018-06-05T10:49:50.362Z,51.19
2018-06-05T10:50:50.376Z,51.48
2018-06-05T10:51:50.358Z,52.72
2018-06-05T10:52:50.383Z,53.77
2018-06-05T10:53:50.122Z,54.9
2018-06-05T10:54:50.150Z,54.97
2018-06-05T10:55:50.381Z,56.21
2018-06-05T10:56:50.390Z,56.4
2018-06-05T10:57:50.390Z,56.6
2018-06-05T10:58:50.415Z,56.89
2018-06-05T10:59:50.423Z,57.18
2018-06-05T11:00:50.161Z,56.79
2018-06-05T11:01:50.408Z,57.21
2018-06-05T11:02:50.413Z,56.82
2018-06-05T11:03:50.436Z,56.52
2018-06-05T11:04:50.176Z,56.52
2018-06-05T11:05:50.446Z,56.89
2018-06-05T11:06:50.455Z,57.08
2018-06-05T11:07:50.464Z,57.47
2018-06-05T11:08:50.447Z,58.22
2018-06-05T11:09:50.441Z,58.41
2018-06-05T11:10:50.464Z,58.7
2018-06-05T11:11:50.462Z,58.97
2018-06-05T11:12:50.606Z,59.06
2018-06-05T11:13:50.466Z,59.91
2018-06-05T11:14:50.482Z,60.88
2018-06-05T11:15:50.485Z,61.17
2018-06-05T11:16:50.478Z,62.01
2018-06-05T11:17:50.485Z,62.3
2018-06-05T11:18:50.225Z,62.2
2018-06-05T11:19:50.528Z,62.3
2018-06-05T11:20:50.547Z,62.01
2018-06-05T11:21:50.513Z,62.23
2018-06-05T11:22:50.502Z,61.46
2018-06-05T11:23:50.696Z,61
2018-06-05T11:24:50.499Z,60.61
2018-06-05T11:25:50.554Z,61
2018-06-05T11:26:50.514Z,60.49
2018-06-05T11:27:50.526Z,62.13
2018-06-05T11:28:50.531Z,62.98
2018-06-05T11:29:50.531Z,63.92
2018-06-05T11:30:50.263Z,64.95
2018-06-05T11:31:50.517Z,65.63
2018-06-05T11:32:50.549Z,66.27
2018-06-05T11:33:50.584Z,66.75
2018-06-05T11:34:50.546Z,67.11
2018-06-05T11:35:50.586Z,67.59
2018-06-05T11:36:50.652Z,67.53
2018-06-05T11:37:50.567Z,66.85
2018-06-05T11:38:50.558Z,66.5
2018-06-05T11:39:50.301Z,65.82
2018-06-05T11:40:50.573Z,65.53
2018-06-05T11:41:50.567Z,66.14
2018-06-05T11:42:50.586Z,64.98
2018-06-05T11:43:50.596Z,65.17
2018-06-05T11:44:50.567Z,65.47
2018-06-05T11:45:50.583Z,66.3
2018-06-05T11:46:50.638Z,66.4
2018-06-05T11:47:50.556Z,67.27
2018-06-05T11:48:50.584Z,66.85
2018-06-05T11:49:50.370Z,66.85
2018-06-05T11:50:50.592Z,67.91
2018-06-05T11:51:50.588Z,68.69
2018-06-05T11:52:50.322Z,69.04
2018-06-05T11:53:50.572Z,69.04
2018-06-05T11:54:50.589Z,69.72
2018-06-05T11:55:50.573Z,69.62
2018-06-05T11:56:50.591Z,70.17
2018-06-05T11:57:50.582Z,70.65
2018-06-05T11:58:50.597Z,70.46
2018-06-05T11:59:50.582Z,70.84
2018-06-05T12:00:50.407Z,70.59
2018-06-05T12:01:50.725Z,70.78
2018-06-05T12:02:50.618Z,69.92
2018-06-05T12:03:50.585Z,70.01
2018-06-05T12:04:50.602Z,70.01
2018-06-05T12:05:50.632Z,69.82
2018-06-05T12:06:50.644Z,69.14
2018-06-05T12:07:50.591Z,70.01
2018-06-05T12:08:50.357Z,70.59
2018-06-05T12:09:50.595Z,70.4
2018-06-05T12:10:50.616Z,70.4
2018-06-05T12:11:50.611Z,70.01
2018-06-05T12:12:50.621Z,69.92
2018-06-05T12:13:50.362Z,70.59
2018-06-05T12:14:50.658Z,70.46
2018-06-05T12:15:50.622Z,70.84
2018-06-05T12:16:50.611Z,71.42
2018-06-05T12:17:50.664Z,71.33
2018-06-05T12:18:50.369Z,71.42
2018-06-05T12:19:50.403Z,72
2018-06-05T12:20:50.629Z,71.62
2018-06-05T12:21:50.636Z,71.62
2018-06-05T12:22:50.610Z,71.62
2018-06-05T12:23:50.398Z,71.72
2018-06-05T12:24:50.633Z,72.39
2018-06-05T12:25:50.615Z,72.2
2018-06-05T12:26:50.649Z,72
2018-06-05T12:27:50.644Z,72
2018-06-05T12:28:50.640Z,72.58
2018-06-05T12:29:50.619Z,72.94
2018-06-05T12:30:50.637Z,73.46
2018-06-05T12:31:50.382Z,73.8
2018-06-05T12:32:50.641Z,73.61
2018-06-05T12:33:50.620Z,73.52
2018-06-05T12:34:50.645Z,73.32
2018-06-05T12:35:50.644Z,74.38
2018-06-05T12:36:50.647Z,74.58
2018-06-05T12:37:50.369Z,74.19
2018-06-05T12:38:50.625Z,74.1
2018-06-05T12:39:50.388Z,74.38
2018-06-05T12:40:50.632Z,74.19
2018-06-05T12:41:50.787Z,74.58
2018-06-05T12:42:50.622Z,74.1
2018-06-05T12:43:50.642Z,73.84
2018-06-05T12:44:50.624Z,74.23
2018-06-05T12:45:50.646Z,74.62
2018-06-05T12:46:50.637Z,74.23
2018-06-05T12:47:50.663Z,74.23
2018-06-05T12:48:50.407Z,75.04
2018-06-05T12:49:50.644Z,73.55
2018-06-05T12:50:50.631Z,72.42
2018-06-05T12:51:50.667Z,72.81
2018-06-05T12:52:50.667Z,71.84
2018-06-05T12:53:50.630Z,72.72
2018-06-05T12:54:50.374Z,71.69
2018-06-05T12:55:50.647Z,70.43